Historyczne dane pomiarowe

Dodano dane terminowe – wersja testowa.

Dane z okresu 1951-2019

Wersja bazy: 1.34 [2019-03-16, lista zmian], aktualizacja planowana na 2019-04-15

Dane meteo z obszaru Polski uzyskane na podstawie danych udostępnionych przez Instytut Meteorologii i Gospodarki Wodnej – Państwowy Instytut Badawczy.

 

Wybierz Datę:    

       

TemperaturaWilgotnośćWiatrCiśnienieOpadyŚniegCzas trwania zjawisk
 Stacja t tx tn tng RH VA  wxwx mslp ppp RRR   cm mm wxwxwxwxwxwxwx
1961-08-14 13.4 18.0 9.7 5.6 85.0- 6.3 3.0---- 1.4------------
1961-08-13 15.0 17.3 13.2 8.5 73.5- 5.3 5.7---- 0.0------------
1961-08-12 16.0 19.0 12.7 8.1 81.5- 4.3 3.0---- 0.0------------
1961-08-11 16.9 18.7 14.2 9.3 93.5- 7.7 1.3---- 0.0------------
1961-08-10 18.5 24.5 11.4 6.8 83.0- 6.3 2.0---- 2.2------------
1961-08-09 16.4 22.0 14.2 9.7 81.5- 3.7 2.3---- 0.0------------
1961-08-08 16.1 20.8 10.1 5.1 80.3- 6.0 3.0---- 2.3------------
1961-08-07 15.4 19.0 14.2 12.0 86.8- 6.3 3.0---- 1.4------------
1961-08-06 17.5 21.4 15.1 12.3 87.8- 5.3 2.7---- 1.9------------
1961-08-05 16.1 18.3 12.8 10.3 85.0- 6.7 3.3---- 1.6------------
1961-08-04 14.3 15.8 10.6 6.8 90.8- 7.0 5.0---- 2.5------------
1961-08-03 13.3 17.5 12.8 8.8 94.3- 5.7 2.7---- 4.3------------
1961-08-02 15.3 18.2 11.7 7.8 90.5- 7.0 1.7---- 7.8------------
1961-08-01 14.3 16.3 13.6 13.0 93.0- 7.0 5.7---- 4.4------------
1961-07-31 14.7 15.7 13.8 13.3 93.5- 7.3 6.7---- 30.9------------
1961-07-30 14.7 16.8 12.5 11.0 92.3- 7.3 3.3---- 0.0------------
1961-07-29 14.2 17.8 12.1 9.5 82.8- 6.3 5.0---- 2.1------------
1961-07-28 13.5 16.5 12.5 10.4 87.5- 7.0 3.3---- 0.5------------
1961-07-27 15.5 19.2 14.5 13.3 88.0- 7.3 4.3---- 2.6------------
1961-07-26 17.0 22.8 13.9 12.5 86.8- 7.7 5.3---- 4.7------------
1961-07-25 15.9 18.8 14.6 12.6 73.5- 6.7 6.0---- 0.7------------
1961-07-24 15.7 17.6 12.6 11.4 71.5- 6.0 6.3---- 0.0------------
1961-07-23 15.4 17.4 13.2 12.4 77.0- 7.7 5.3---- 0.1------------
1961-07-22 15.2 17.1 12.3 9.8 85.8- 7.0 5.0---- 5.6------------
1961-07-21 15.8 17.7 13.5 12.9 88.0- 5.7 4.0---- 1.4------------
1961-07-20 15.1 19.9 12.4 7.9 87.0- 7.0 3.0---- 10.2------------
1961-07-19 15.8 19.1 13.1 11.1 84.3- 5.3 3.7---- 0.0------------
1961-07-18 15.2 18.5 10.8 5.4 88.8- 6.0 2.3---- 0.2------------
1961-07-17 15.4 18.3 10.3 7.0 83.3- 5.7 2.0---- 0.1------------
1961-07-16 16.2 19.6 13.2 10.8 80.3- 7.3 4.0---- 7.7------------
1961-07-15 16.1 18.8 11.9 8.5 71.5- 3.3 3.7---- 4.0------------
1961-07-14 13.5 16.5 12.2 12.6 89.8- 6.3 5.3---- 0.6------------
1961-07-13 19.6 28.3 15.1 12.9 81.8- 7.0 5.0---- 14.9------------
1961-07-12 16.8 19.3 13.7 11.9 86.5- 4.3 3.3---- 0.0------------
1961-07-11 15.7 18.8 10.4 8.2 81.3- 6.3 3.7---- 6.0------------
1961-07-10 13.5 17.0 10.4 9.8 84.5- 5.7 5.0---- 1.2------------
1961-07-09 15.3 17.4 13.7 13.3 82.5- 7.0 3.0---- 15.0------------
1961-07-08 14.8 18.0 11.3 9.7 89.3- 7.3 3.0---- 12.6------------
1961-07-07 13.7 15.8 10.5 10.4 77.0- 5.3 5.3---- 2.7------------
1961-07-06 13.8 16.8 8.1 6.8 76.5- 6.7 6.3---- 11.3------------
1961-07-05 12.3 16.5 9.8 9.5 74.0- 6.3 7.7---- 0.6------------
1961-07-04 15.5 18.4 11.4 9.3 82.8- 7.0 4.7---- 5.7------------
1961-07-03 19.9 31.1 15.3 10.9 69.8- 4.7 4.3---- 0.0------------
1961-07-02 20.6 27.8 9.0 5.3 71.5- 0.0 1.0---- 0.0------------
1961-07-01 15.7 19.8 7.1 2.4 81.5- 0.7 1.0---- 0.0------------
1961-06-30 15.4 18.6 11.4 7.1 81.8- 0.3 2.7---- 0.0------------
1961-06-29 17.3 19.6 14.3 13.3 72.0- 4.0 5.7---- 0.0------------
1961-06-28 15.7 17.7 12.7 11.8 65.5- 5.0 7.3---- 0.0------------
1961-06-27 19.3 25.7 16.5 13.6 86.8- 7.0 4.0---- 4.9------------
1961-06-26 19.3 22.5 12.9 7.1 71.0- 0.7 2.7---- 1.7------------
1961-06-25 20.5 26.5 13.6 9.4 62.8- 4.7 6.0---- 0.0------------
1961-06-24 17.7 21.9 14.0 13.3 68.3- 5.3 6.0---- 0.0------------
1961-06-23 17.2 19.9 10.1 5.1 70.0- 6.0 5.3---- 0.0------------
1961-06-22 16.4 21.8 7.6 3.1 60.8- 5.0 4.0---- 0.0------------
1961-06-21 14.5 16.5 10.7 7.2 69.8- 4.7 3.3---- 0.0------------
1961-06-20 13.7 17.9 11.8 10.7 75.5- 4.0 4.3---- 0.0------------
1961-06-19 15.4 18.2 13.0 11.5 64.0- 3.7 7.3---- 0.4------------
1961-06-18 18.4 23.4 15.5 13.9 79.0- 6.0 6.7---- 0.6------------
1961-06-17 18.1 21.4 11.1 8.5 77.3- 4.7 3.3---- 0.0------------
1961-06-16 14.9 17.4 12.9 13.1 80.8- 5.3 6.3---- 0.0------------
357.0 ms

 

Źródłem pochodzenia danych jest Instytut Meteorologii i Gospodarki Wodnej – Państwowy Instytut Badawczy. Dane Instytutu Meteorologii i Gospodarki Wodnej – Państwowego Instytutu Badawczego zostały przetworzone.

Dane źródłowe można odnaleźć na stronie https://dane.imgw.pl